Observations for AUCKLAND INTL A, New Zealand (NZAA)

NZAA 192000Z AUTO 24007KT 9999 OVC039/// 15/09 Q1018 NOSIG  
NZAA 191930Z AUTO 23007KT 9999 OVC037/// 15/08 Q1018 NOSIG  
NZAA 191900Z AUTO 26009KT 9999 OVC039/// 14/08 Q1018 NOSIG  
NZAA 191830Z AUTO 26011KT 9999 OVC038/// 14/08 Q1018 NOSIG  
NZAA 191800Z AUTO 26008KT 9999 OVC037/// 14/10 Q1017 NOSIG  
NZAA 191730Z AUTO 28007KT 9999 BKN036/// 14/10 Q1017 NOSIG  
NZAA 191700Z AUTO 27006KT 9999 OVC037/// 14/10 Q1017 NOSIG  
NZAA 191630Z AUTO 28010KT 9999 BKN038/// 14/11 Q1017 NOSIG  
NZAA 191600Z AUTO 25006KT 9999 FEW016/// BKN025/// OVC038/// 14/11 Q1017 NOSIG  
NZAA 191530Z AUTO 23006KT 9999 FEW016/// SCT023/// OVC037/// 14/11 Q1017 NOSIG  
NZAA 191500Z AUTO 25008KT 9999 BKN018/// BKN025/// OVC035/// 14/11 Q1016 NOSIG  
NZAA 191430Z AUTO 24007KT 9999 OVC021/// 13/11 Q1017 NOSIG  
NZAA 191400Z AUTO 25008KT 9999 SCT019/// BKN027/// OVC037/// 14/11 Q1017 NOSIG  
NZAA 191330Z AUTO 25010KT 9999 FEW030/// OVC035/// 14/11 Q1017 NOSIG
NZAA 191300Z AUTO 25008KT 9999 OVC033/// 14/11 Q1017 NOSIG  
NZAA 191230Z AUTO 25006KT 9999 BKN036/// 14/11 Q1017 NOSIG  
NZAA 191200Z AUTO 23008KT 9999 BKN033/// 14/12 Q1017 NOSIG  
NZAA 191130Z AUTO 24010KT 9999 -RA FEW013/// BKN026/// OVC033/// 14/12 Q1017 NOSIG  
NZAA 191100Z AUTO 25009KT 9999 -RA FEW017/// BKN027/// OVC033/// 14/12 Q1016 NOSIG  
NZAA 191030Z AUTO 24011KT 9999 -RA FEW016/// BKN024/// OVC031/// 14/12 Q1016 NOSIG  
NZAA 191000Z AUTO 25010KT 9999 FEW021/// OVC032/// 15/11 Q1016 NOSIG
NZAA 190930Z AUTO 23008KT 9999 FEW021/// OVC033/// 14/12 Q1016 NOSIG
NZAA 190900Z AUTO 25009KT 9999 FEW022/// SCT028/// OVC035/// 15/12 Q1016 NOSIG  
NZAA 190830Z AUTO 26013KT 9999 OVC037/// 15/11 Q1016 NOSIG  
NZAA 190800Z AUTO 25012KT 9999 BKN036/// 15/11 Q1015 NOSIG  
NZAA 190730Z AUTO 25013KT 9999 FEW023/// SCT036/// 15/11 Q1015 NOSIG
NZAA 190700Z AUTO 25014KT 9999 BKN035/// 15/11 Q1014 NOSIG  
NZAA 190630Z AUTO 25017KT 9999 BKN034/// 15/11 Q1014 NOSIG  
NZAA 190600Z AUTO 25015KT 9999 FEW022/// BKN035/// 16/11 Q1014 NOSIG
NZAA 190530Z AUTO 25014KT 9999 FEW015/// BKN033/// 17/12 Q1013 NOSIG
NZAA 190500Z AUTO 26016KT 9999 BKN027/// BKN034/// 16/13 Q1013 NOSIG
NZAA 190430Z AUTO 26019KT 9999 BKN028/// BKN038/// 16/12 Q1013 NOSIG
NZAA 190400Z AUTO 25017KT 9999 BKN026/// 17/12 Q1013 NOSIG  
NZAA 190330Z AUTO 26015KT 9999 SCT030/// BKN037/// 18/13 Q1013 NOSIG
NZAA 190300Z AUTO 26017KT 9999 SCT030/// BKN036/// 18/13 Q1013 NOSIG
NZAA 190230Z AUTO 26016KT 9999 SCT029/// BKN038/// 18/13 Q1013 NOSIG
NZAA 190200Z AUTO 27016KT 9999 SCT028/// BKN037/// 18/13 Q1013 NOSIG
NZAA 190130Z AUTO 26016KT 9999 BKN039/// 18/12 Q1013 NOSIG  
NZAA 190100Z AUTO 26017KT 9999 SCT028/// BKN034/// 18/13 Q1013 NOSIG
NZAA 190030Z AUTO 27020KT 9999 FEW027/// BKN034/// OVC041/// 18/13 Q1012 NOSIG  
NZAA 190000Z AUTO 26017KT 9999 BKN041/// 18/13 Q1012 NOSIG  
NZAA 182330Z AUTO 27019KT 9999 BKN041/// 19/12 Q1012 NOSIG  
NZAA 182300Z AUTO 27018KT 9999 BKN046/// 19/13 Q1012 NOSIG  
NZAA 182230Z AUTO 28018KT 9999 FEW030/// BKN048/// 19/12 Q1012 NOSIG
NZAA 182200Z AUTO 29015KT 9999 FEW029/// SCT036/// BKN050/// 18/13 Q1012 NOSIG  
NZAA 182130Z AUTO 29017KT 9999 FEW033/// OVC050/// 18/13 Q1012 NOSIG
NZAA 182100Z AUTO 30011KT 9999 BKN041/// 17/13 Q1012 NOSIG  
NZAA 182030Z AUTO 30012KT 280V340 9999 SCT044/// BKN055/// 16/13 Q1012 NOSIG
NZAA 182000Z AUTO 31011KT 8000 VCSH FEW020/// BKN049/// OVC055/// 16/14 Q1011 NOSIG 
NZAA 181930Z AUTO 31012KT 9999 -RA BKN023/// BKN031/// OVC039/// 16/14 Q1011 NOSIG